Terminal Aerodrome Forecast
Issued by NWS

Home | Current Version | Previous Version | Text Only | Print | Product List | Glossary On
Versions: 1 2 3 4 5 6 7 8 9 10 11 12 13 14 15 16 17 18 19 20 21 22 23 24 25
000
FTUS43 KABR 120500
TAFMBG
TAF
KMBG 120524Z 1206/1306 01009KT P6SM OVC090
     FM120800 03011KT P6SM -SHRA VCTS SCT040CB OVC070
     FM121200 04011KT P6SM VCSH BKN035
     FM121800 24005KT P6SM SCT250=

USA.gov is the U.S. government's official web portal to all federal, state and local government web resources and services.